Terminal Aerodrome Forecast
Issued by NWS Twin Cities, MN

Home | Current Version | Previous Version | Text Only | Print | Product List | Glossary Off
Versions: 1 2 3 4 5 6 7 8 9 10 11 12 13 14 15 16 17 18 19 20 21 22 23 24 25 26 27 28 29 30 31 32 33 34 35 36 37 38

847
FTUS43 KMPX 231409 AAA
TAFMSP
TAF AMD
KMSP 231409Z 2314/2418 20007KT P6SM SCT030 SCT120 BKN250
      TEMPO 2314/2316 BKN030
     FM231700 18010KT P6SM SCT050 BKN250
     FM240000 15007KT P6SM SCT050 BKN200
     FM240600 16007KT P6SM SCT200
     FM241500 18010KT P6SM FEW050=

USA.gov is the U.S. government's official web portal to all federal, state and local government web resources and services.